createdAt,value
2018-06-15T00:00:39.051Z,12.77
2018-06-15T00:01:38.994Z,12.82
2018-06-15T00:02:38.938Z,12.74
2018-06-15T00:03:38.882Z,12.78
2018-06-15T00:04:38.823Z,12.74
2018-06-15T00:05:38.767Z,12.78
2018-06-15T00:06:38.714Z,12.79
2018-06-15T00:07:38.654Z,12.71
2018-06-15T00:08:38.599Z,12.66
2018-06-15T00:09:38.545Z,12.69
2018-06-15T00:10:38.486Z,12.60
2018-06-15T00:11:38.431Z,12.69
2018-06-15T00:12:38.379Z,12.64
2018-06-15T00:13:38.322Z,12.59
2018-06-15T00:14:38.259Z,12.71
2018-06-15T00:15:38.204Z,12.63
2018-06-15T00:16:38.152Z,12.71
2018-06-15T00:17:38.090Z,12.67
2018-06-15T00:18:38.034Z,12.67
2018-06-15T00:19:37.976Z,12.70
2018-06-15T00:20:37.920Z,12.70
2018-06-15T00:21:37.865Z,12.62
2018-06-15T00:22:37.809Z,12.71
2018-06-15T00:23:37.749Z,12.66
2018-06-15T00:24:37.692Z,12.59
2018-06-15T00:25:37.636Z,12.57
2018-06-15T00:26:37.580Z,12.60
2018-06-15T00:27:37.540Z,12.56
2018-06-15T00:28:37.468Z,12.56
2018-06-15T00:29:37.432Z,12.59
2018-06-15T00:30:37.354Z,12.57
2018-06-15T00:31:37.297Z,12.59
2018-06-15T00:32:37.240Z,12.56
2018-06-15T00:33:37.186Z,12.57
2018-06-15T00:34:37.127Z,12.57
2018-06-15T00:35:37.072Z,12.49
2018-06-15T00:36:37.014Z,12.46
2018-06-15T00:37:36.957Z,12.46
2018-06-15T00:38:36.904Z,12.41
2018-06-15T00:39:36.842Z,12.48
2018-06-15T00:40:36.787Z,12.52
2018-06-15T00:41:36.730Z,12.45
2018-06-15T00:42:36.674Z,12.42
2018-06-15T00:43:36.617Z,12.54
2018-06-15T00:44:36.561Z,12.48
2018-06-15T00:45:36.517Z,12.46
2018-06-15T00:46:36.455Z,12.48
2018-06-15T00:47:36.389Z,12.45
2018-06-15T00:48:36.333Z,12.48
2018-06-15T00:49:36.277Z,12.38
2018-06-15T00:50:36.222Z,12.37
2018-06-15T00:51:36.164Z,12.34
2018-06-15T00:52:36.107Z,12.30
2018-06-15T00:53:36.054Z,12.42
2018-06-15T00:54:35.996Z,12.48
2018-06-15T00:55:35.955Z,12.38
2018-06-15T00:56:35.880Z,12.31
2018-06-15T00:57:35.826Z,12.33
2018-06-15T00:58:35.773Z,12.34
2018-06-15T00:59:35.711Z,12.38
2018-06-15T01:00:35.657Z,12.38
2018-06-15T01:01:35.596Z,12.33
2018-06-15T01:02:35.540Z,12.21
2018-06-15T01:03:35.482Z,12.29
2018-06-15T01:04:35.428Z,12.29
2018-06-15T01:05:35.370Z,12.21
2018-06-15T01:06:35.314Z,12.26
2018-06-15T01:07:35.255Z,12.16
2018-06-15T01:08:35.198Z,12.21
2018-06-15T01:09:35.143Z,12.09
2018-06-15T01:10:35.088Z,12.09
2018-06-15T01:11:35.027Z,12.13
2018-06-15T01:12:34.985Z,12.11
2018-06-15T01:13:34.918Z,12.15
2018-06-15T01:14:34.862Z,12.20
2018-06-15T01:15:34.801Z,12.11
2018-06-15T01:16:34.744Z,12.15
2018-06-15T01:17:34.689Z,12.21
2018-06-15T01:18:34.644Z,12.20
2018-06-15T01:19:34.573Z,12.21
2018-06-15T01:20:34.536Z,12.23
2018-06-15T01:21:34.465Z,12.21
2018-06-15T01:22:34.406Z,12.19
2018-06-15T01:23:34.349Z,12.23
2018-06-15T01:24:34.295Z,12.20
2018-06-15T01:25:34.233Z,12.13
2018-06-15T01:26:34.180Z,12.12
2018-06-15T01:27:34.119Z,12.04
2018-06-15T01:28:34.063Z,11.93
2018-06-15T01:29:34.008Z,11.97
2018-06-15T01:30:33.973Z,11.83
2018-06-15T01:31:33.893Z,11.85
2018-06-15T01:32:33.834Z,11.83
2018-06-15T01:33:33.793Z,11.77
2018-06-15T01:34:33.721Z,11.82
2018-06-15T01:35:33.668Z,11.82
2018-06-15T01:36:33.608Z,11.80
2018-06-15T01:37:33.553Z,11.82
2018-06-15T01:38:33.494Z,11.85
2018-06-15T01:39:33.436Z,11.85
2018-06-15T01:40:33.395Z,11.83
2018-06-15T01:41:33.323Z,12.04
2018-06-15T01:42:33.265Z,11.86
2018-06-15T01:43:33.207Z,11.94
2018-06-15T01:44:33.171Z,11.89
2018-06-15T01:45:33.103Z,11.85
2018-06-15T01:46:33.037Z,11.83
2018-06-15T01:47:32.982Z,11.96
2018-06-15T01:48:32.922Z,11.87
2018-06-15T01:49:32.871Z,11.93
2018-06-15T01:50:32.809Z,11.83
2018-06-15T01:51:32.764Z,11.83
2018-06-15T01:52:32.693Z,11.94
2018-06-15T01:53:32.637Z,11.96
2018-06-15T01:54:32.581Z,11.94
2018-06-15T01:55:32.524Z,11.99
2018-06-15T01:56:32.471Z,12.01
2018-06-15T01:57:32.413Z,12.02
2018-06-15T01:58:32.365Z,11.97
2018-06-15T01:59:32.297Z,12.02
2018-06-15T02:00:32.240Z,12.01
2018-06-15T02:01:32.185Z,12.06
2018-06-15T02:02:32.130Z,12.09
2018-06-15T02:03:32.068Z,12.11
2018-06-15T02:04:32.013Z,12.16
2018-06-15T02:05:31.954Z,12.20
2018-06-15T02:06:31.898Z,12.19
2018-06-15T02:07:31.841Z,12.21
2018-06-15T02:08:31.784Z,12.27
2018-06-15T02:09:31.730Z,12.31
2018-06-15T02:10:31.675Z,12.39
2018-06-15T02:11:31.616Z,12.33
2018-06-15T02:12:31.555Z,12.31
2018-06-15T02:13:31.592Z,12.46
2018-06-15T02:14:31.443Z,12.46
2018-06-15T02:15:31.385Z,12.51
2018-06-15T02:16:31.329Z,12.46
2018-06-15T02:17:31.272Z,12.39
2018-06-15T02:18:31.218Z,12.45
2018-06-15T02:19:31.157Z,12.48
2018-06-15T02:20:31.102Z,12.48
2018-06-15T02:21:31.045Z,12.45
2018-06-15T02:22:30.990Z,12.52
2018-06-15T02:23:30.930Z,12.46
2018-06-15T02:24:30.873Z,12.51
2018-06-15T02:25:30.818Z,12.44
2018-06-15T02:26:30.761Z,12.42
2018-06-15T02:27:30.705Z,12.42
2018-06-15T02:28:30.651Z,12.45
2018-06-15T02:29:30.591Z,12.38
2018-06-15T02:30:30.537Z,12.34
2018-06-15T02:31:30.477Z,12.48
2018-06-15T02:32:30.420Z,12.33
2018-06-15T02:33:30.366Z,12.37
2018-06-15T02:34:30.307Z,12.31
2018-06-15T02:35:30.250Z,12.31
2018-06-15T02:36:30.192Z,12.38
2018-06-15T02:37:30.138Z,12.38
2018-06-15T02:38:30.080Z,12.37
2018-06-15T02:39:30.024Z,12.29
2018-06-15T02:40:29.965Z,12.30
2018-06-15T02:41:29.910Z,12.30
2018-06-15T02:42:29.851Z,12.29
2018-06-15T02:43:29.795Z,12.29
2018-06-15T02:44:29.738Z,12.29
2018-06-15T02:45:29.739Z,12.30
2018-06-15T02:46:29.625Z,12.33
2018-06-15T02:47:29.569Z,12.26
2018-06-15T02:48:29.511Z,12.21
2018-06-15T02:49:29.454Z,12.24
2018-06-15T02:50:29.399Z,12.21
2018-06-15T02:51:29.340Z,12.27
2018-06-15T02:52:29.283Z,12.19
2018-06-15T02:53:29.227Z,12.16
2018-06-15T02:54:29.170Z,12.23
2018-06-15T02:55:29.113Z,12.19
2018-06-15T02:56:29.058Z,12.21
2018-06-15T02:57:29.002Z,12.16
2018-06-15T02:58:28.947Z,12.16
2018-06-15T02:59:28.884Z,12.04
2018-06-15T03:00:28.831Z,12.06
2018-06-15T03:01:28.773Z,12.02
2018-06-15T03:02:28.716Z,11.97
2018-06-15T03:03:28.656Z,12.08
2018-06-15T03:04:28.600Z,12.05
2018-06-15T03:05:28.544Z,12.01
2018-06-15T03:06:28.490Z,12.05
2018-06-15T03:07:28.428Z,11.99
2018-06-15T03:08:28.376Z,12.04
2018-06-15T03:09:28.315Z,12.02
2018-06-15T03:10:28.258Z,11.96
2018-06-15T03:11:28.205Z,11.96
2018-06-15T03:12:28.144Z,11.96
2018-06-15T03:13:28.088Z,12.01
2018-06-15T03:14:28.032Z,11.94
2018-06-15T03:15:27.973Z,12.01
2018-06-15T03:16:27.920Z,11.96
2018-06-15T03:17:27.858Z,11.96
2018-06-15T03:18:27.803Z,11.99
2018-06-15T03:19:27.755Z,11.96
2018-06-15T03:20:27.686Z,11.90
2018-06-15T03:21:27.630Z,11.82
2018-06-15T03:22:27.572Z,11.87
2018-06-15T03:23:27.513Z,11.86
2018-06-15T03:24:27.456Z,11.83
2018-06-15T03:25:27.403Z,11.97
2018-06-15T03:26:27.345Z,11.96
2018-06-15T03:27:27.288Z,11.90
2018-06-15T03:28:27.229Z,11.99
2018-06-15T03:29:27.171Z,12.02
2018-06-15T03:30:27.119Z,11.90
2018-06-15T03:31:27.056Z,11.96
2018-06-15T03:32:26.997Z,11.94
2018-06-15T03:33:26.941Z,11.96
2018-06-15T03:34:26.884Z,11.96
2018-06-15T03:35:26.828Z,11.90
2018-06-15T03:36:26.774Z,11.96
2018-06-15T03:37:26.712Z,11.93
2018-06-15T03:38:26.655Z,11.97
2018-06-15T03:39:26.603Z,12.04
2018-06-15T03:40:26.540Z,11.99
2018-06-15T03:41:26.485Z,11.99
2018-06-15T03:42:26.430Z,11.99
2018-06-15T03:43:26.369Z,11.90
2018-06-15T03:44:26.310Z,11.96
2018-06-15T03:45:26.255Z,12.01
2018-06-15T03:46:26.197Z,11.93
2018-06-15T03:47:26.139Z,12.05
2018-06-15T03:48:26.081Z,12.02
2018-06-15T03:49:26.026Z,12.06
2018-06-15T03:50:25.969Z,12.02
2018-06-15T03:51:25.911Z,12.15
2018-06-15T03:52:25.851Z,12.13
2018-06-15T03:53:25.795Z,12.21
2018-06-15T03:54:25.739Z,12.31
2018-06-15T03:55:25.679Z,12.30
2018-06-15T03:56:25.624Z,12.29
2018-06-15T03:57:25.568Z,12.33
2018-06-15T03:58:25.511Z,12.34
2018-06-15T03:59:25.452Z,12.38
2018-06-15T04:00:25.393Z,12.33
2018-06-15T04:01:25.339Z,12.46
2018-06-15T04:02:25.281Z,12.52
2018-06-15T04:03:25.224Z,12.42
2018-06-15T04:04:25.166Z,12.42
2018-06-15T04:05:25.113Z,12.48
2018-06-15T04:06:25.053Z,12.46
2018-06-15T04:07:24.996Z,12.51
2018-06-15T04:08:24.937Z,12.45
2018-06-15T04:09:24.880Z,12.41
2018-06-15T04:10:24.823Z,12.49
2018-06-15T04:11:24.768Z,12.52
2018-06-15T04:12:24.709Z,12.48
2018-06-15T04:13:24.653Z,12.48
2018-06-15T04:14:24.597Z,12.51
2018-06-15T04:15:24.541Z,12.44
2018-06-15T04:16:24.484Z,12.44
2018-06-15T04:17:24.431Z,12.48
2018-06-15T04:18:24.367Z,12.46
2018-06-15T04:19:24.308Z,12.46
2018-06-15T04:20:24.252Z,12.46
2018-06-15T04:21:24.201Z,12.46
2018-06-15T04:22:24.144Z,12.46
2018-06-15T04:23:24.090Z,12.60
2018-06-15T04:24:24.042Z,12.59
2018-06-15T04:25:23.973Z,12.69
2018-06-15T04:26:23.911Z,12.70
2018-06-15T04:27:23.853Z,12.69
2018-06-15T04:28:23.797Z,12.67
2018-06-15T04:29:23.740Z,12.78
2018-06-15T04:30:23.683Z,12.67
2018-06-15T04:31:23.634Z,12.81
2018-06-15T04:32:23.570Z,12.82
2018-06-15T04:33:23.514Z,12.79
2018-06-15T04:34:23.456Z,12.81
2018-06-15T04:35:23.407Z,12.92
2018-06-15T04:36:23.342Z,12.89
2018-06-15T04:37:23.328Z,12.97
2018-06-15T04:38:23.233Z,12.97
2018-06-15T04:39:23.173Z,13.03
2018-06-15T04:40:23.115Z,13.00
2018-06-15T04:41:23.069Z,13.03
2018-06-15T04:42:23.007Z,13.00
2018-06-15T04:43:22.945Z,13.03
2018-06-15T04:44:22.892Z,13.00
2018-06-15T04:45:22.833Z,13.17
2018-06-15T04:46:22.777Z,12.99
2018-06-15T04:47:22.720Z,13.03
2018-06-15T04:48:22.665Z,13.02
2018-06-15T04:49:22.606Z,13.03
2018-06-15T04:50:22.550Z,13.03
2018-06-15T04:51:22.491Z,13.07
2018-06-15T04:52:22.436Z,13.09
2018-06-15T04:53:22.389Z,13.09
2018-06-15T04:54:22.327Z,13.11
2018-06-15T04:55:22.267Z,13.15
2018-06-15T04:56:22.285Z,13.17
2018-06-15T04:57:22.154Z,13.15
2018-06-15T04:58:22.098Z,13.18
2018-06-15T04:59:22.043Z,13.22
2018-06-15T05:00:21.985Z,13.20
2018-06-15T05:01:21.928Z,13.30
2018-06-15T05:02:21.875Z,13.30
2018-06-15T05:03:21.813Z,13.32
2018-06-15T05:04:21.758Z,13.29
2018-06-15T05:05:21.707Z,13.40
2018-06-15T05:06:21.649Z,13.44
2018-06-15T05:07:21.590Z,13.37
2018-06-15T05:08:21.534Z,13.30
2018-06-15T05:09:21.479Z,13.44
2018-06-15T05:10:21.422Z,13.49
2018-06-15T05:11:21.364Z,13.52
2018-06-15T05:12:21.307Z,13.55
2018-06-15T05:13:21.253Z,13.54
2018-06-15T05:14:21.200Z,13.67
2018-06-15T05:15:21.139Z,13.67
2018-06-15T05:16:21.085Z,13.65
2018-06-15T05:17:21.054Z,13.71
2018-06-15T05:18:20.969Z,13.62
2018-06-15T05:19:20.913Z,13.74
2018-06-15T05:20:20.862Z,13.76
2018-06-15T05:21:20.802Z,13.81
2018-06-15T05:22:20.747Z,13.84
2018-06-15T05:23:20.690Z,13.84
2018-06-15T05:24:20.634Z,13.83
2018-06-15T05:25:20.577Z,13.87
2018-06-15T05:26:20.521Z,13.84
2018-06-15T05:27:20.468Z,13.87
2018-06-15T05:28:20.410Z,13.96
2018-06-15T05:29:20.353Z,13.91
2018-06-15T05:30:20.299Z,13.89
2018-06-15T05:31:20.242Z,14.01
2018-06-15T05:32:20.193Z,14.07
2018-06-15T05:33:20.134Z,14.09
2018-06-15T05:34:20.073Z,14.21
2018-06-15T05:35:20.037Z,14.24
2018-06-15T05:36:19.962Z,14.21
2018-06-15T05:37:19.906Z,14.37
2018-06-15T05:38:19.848Z,14.31
2018-06-15T05:39:19.794Z,14.43
2018-06-15T05:40:19.738Z,14.39
2018-06-15T05:41:19.681Z,14.53
2018-06-15T05:42:19.627Z,14.57
2018-06-15T05:43:19.570Z,14.62
2018-06-15T05:44:19.514Z,14.67
2018-06-15T05:45:19.461Z,14.65
2018-06-15T05:46:19.408Z,14.65
2018-06-15T05:47:19.350Z,14.75
2018-06-15T05:48:19.296Z,14.74
2018-06-15T05:49:19.237Z,14.87
2018-06-15T05:50:19.184Z,14.90
2018-06-15T05:51:19.127Z,14.99
2018-06-15T05:52:19.072Z,15.06
2018-06-15T05:53:19.017Z,15.05
2018-06-15T05:54:18.962Z,15.09
2018-06-15T05:55:18.908Z,15.17
2018-06-15T05:56:18.854Z,15.21
2018-06-15T05:57:18.799Z,15.31
2018-06-15T05:58:18.747Z,15.26
2018-06-15T05:59:18.686Z,15.28
2018-06-15T06:00:18.640Z,15.36
2018-06-15T06:01:18.583Z,15.45
2018-06-15T06:02:18.529Z,15.49
2018-06-15T06:03:18.468Z,15.49
2018-06-15T06:04:18.420Z,15.61
2018-06-15T06:05:18.366Z,15.60
2018-06-15T06:06:18.304Z,15.59
2018-06-15T06:07:18.251Z,15.60
2018-06-15T06:08:18.195Z,15.79
2018-06-15T06:09:18.142Z,15.82
2018-06-15T06:10:18.091Z,15.93
2018-06-15T06:11:18.033Z,15.99
2018-06-15T06:12:17.985Z,15.96
2018-06-15T06:13:17.924Z,16.11
2018-06-15T06:14:17.871Z,16.09
2018-06-15T06:15:17.814Z,16.12
2018-06-15T06:16:17.761Z,16.03
2018-06-15T06:17:17.707Z,16.16
2018-06-15T06:18:17.651Z,16.20
2018-06-15T06:19:17.596Z,16.09
2018-06-15T06:20:17.543Z,16.31
2018-06-15T06:21:17.490Z,16.38
2018-06-15T06:22:17.436Z,16.30
2018-06-15T06:23:17.381Z,16.33
2018-06-15T06:24:17.326Z,16.40
2018-06-15T06:25:17.273Z,16.44
2018-06-15T06:26:17.220Z,16.42
2018-06-15T06:27:17.165Z,16.52
2018-06-15T06:28:17.111Z,16.58
2018-06-15T06:29:17.059Z,16.48
2018-06-15T06:30:17.054Z,16.58
2018-06-15T06:31:16.956Z,16.56
2018-06-15T06:32:16.895Z,16.59
2018-06-15T06:33:16.844Z,16.56
2018-06-15T06:34:16.787Z,16.59
2018-06-15T06:35:16.733Z,16.58
2018-06-15T06:36:16.683Z,16.55
2018-06-15T06:37:16.627Z,16.59
2018-06-15T06:38:16.581Z,16.58
2018-06-15T06:39:16.519Z,16.70
2018-06-15T06:40:16.470Z,16.68
2018-06-15T06:41:16.410Z,16.71
2018-06-15T06:42:16.358Z,16.67
2018-06-15T06:43:16.304Z,16.77
2018-06-15T06:44:16.249Z,16.74
2018-06-15T06:45:16.196Z,16.73
2018-06-15T06:46:16.144Z,16.90
2018-06-15T06:47:16.091Z,16.89
2018-06-15T06:48:16.036Z,16.95
2018-06-15T06:49:15.984Z,16.88
2018-06-15T06:50:15.931Z,17.04
2018-06-15T06:51:15.876Z,16.96
2018-06-15T06:52:15.822Z,17.03
2018-06-15T06:53:15.768Z,17.11
2018-06-15T06:54:15.719Z,17.08
2018-06-15T06:55:15.658Z,17.13
2018-06-15T06:56:16.531Z,16.98
2018-06-15T06:57:15.552Z,17.07
2018-06-15T06:58:15.500Z,17.00
2018-06-15T06:59:15.452Z,17.06
2018-06-15T07:00:15.395Z,16.98
2018-06-15T07:01:15.337Z,17.08
2018-06-15T07:02:15.291Z,17.18
2018-06-15T07:03:15.259Z,17.25
2018-06-15T07:04:15.176Z,17.32
2018-06-15T07:05:15.129Z,17.35
2018-06-15T07:06:15.129Z,17.51
2018-06-15T07:07:15.016Z,17.47
2018-06-15T07:08:14.962Z,17.53
2018-06-15T07:09:14.913Z,17.54
2018-06-15T07:10:14.858Z,17.57
2018-06-15T07:11:14.806Z,17.54
2018-06-15T07:12:14.749Z,17.55
2018-06-15T07:13:14.746Z,17.55
2018-06-15T07:14:14.643Z,17.57
2018-06-15T07:15:14.589Z,17.64
2018-06-15T07:16:14.536Z,17.69
2018-06-15T07:17:14.482Z,17.71
2018-06-15T07:18:14.434Z,17.82
2018-06-15T07:19:14.377Z,17.82
2018-06-15T07:20:14.323Z,17.92
2018-06-15T07:21:14.271Z,17.87
2018-06-15T07:22:14.217Z,17.82
2018-06-15T07:23:14.166Z,17.92
2018-06-15T07:24:14.113Z,18.06
2018-06-15T07:25:14.059Z,18.07
2018-06-15T07:26:14.007Z,18.04
2018-06-15T07:27:13.956Z,18.07
2018-06-15T07:28:13.904Z,18.09
2018-06-15T07:29:13.846Z,18.24
2018-06-15T07:30:13.794Z,18.31
2018-06-15T07:31:13.740Z,18.31
2018-06-15T07:32:13.709Z,18.27
2018-06-15T07:33:13.635Z,18.37
2018-06-15T07:34:13.583Z,18.22
2018-06-15T07:35:13.529Z,18.27
2018-06-15T07:36:13.478Z,18.37
2018-06-15T07:37:13.429Z,18.33
2018-06-15T07:38:13.374Z,18.34
2018-06-15T07:39:13.320Z,18.43
2018-06-15T07:40:13.269Z,18.49
2018-06-15T07:41:13.216Z,18.52
2018-06-15T07:42:13.164Z,18.62
2018-06-15T07:43:13.109Z,18.59
2018-06-15T07:44:13.058Z,18.54
2018-06-15T07:45:13.011Z,18.44
2018-06-15T07:46:13.014Z,18.39
2018-06-15T07:47:12.901Z,18.44
2018-06-15T07:48:12.847Z,18.54
2018-06-15T07:49:12.802Z,18.76
2018-06-15T07:50:12.744Z,18.76
2018-06-15T07:51:12.694Z,18.87
2018-06-15T07:52:12.640Z,18.76
2018-06-15T07:53:12.586Z,18.74
2018-06-15T07:54:12.535Z,18.76
2018-06-15T07:55:12.482Z,18.67
2018-06-15T07:56:12.431Z,18.76
2018-06-15T07:57:12.378Z,18.92
2018-06-15T07:58:12.326Z,18.90
2018-06-15T07:59:12.273Z,19.05
2018-06-15T08:00:12.231Z,19.17
2018-06-15T08:01:12.170Z,19.18
2018-06-15T08:02:12.120Z,19.18
2018-06-15T08:03:12.065Z,19.36
2018-06-15T08:04:12.016Z,19.36
2018-06-15T08:05:11.961Z,19.47
2018-06-15T08:06:11.911Z,19.47
2018-06-15T08:07:11.859Z,19.39
2018-06-15T08:08:11.806Z,19.35
2018-06-15T08:09:11.762Z,19.21
2018-06-15T08:10:11.728Z,19.18
2018-06-15T08:11:11.650Z,19.14
2018-06-15T08:12:11.609Z,19.15
2018-06-15T08:13:11.547Z,19.25
2018-06-15T08:14:11.495Z,19.25
2018-06-15T08:15:11.445Z,19.20
2018-06-15T08:16:11.392Z,19.38
2018-06-15T08:17:11.346Z,19.53
2018-06-15T08:18:11.287Z,19.73
2018-06-15T08:19:11.236Z,19.88
2018-06-15T08:20:11.184Z,19.88
2018-06-15T08:21:11.133Z,19.91
2018-06-15T08:22:11.085Z,19.90
2018-06-15T08:23:11.031Z,19.76
2018-06-15T08:24:10.982Z,19.90
2018-06-15T08:25:10.927Z,20.00
2018-06-15T08:26:10.875Z,20.05
2018-06-15T08:27:10.824Z,20.27
2018-06-15T08:28:10.773Z,20.35
2018-06-15T08:29:10.722Z,20.42
2018-06-15T08:30:10.671Z,20.25
2018-06-15T08:31:10.620Z,20.16
2018-06-15T08:32:10.570Z,19.98
2018-06-15T08:33:10.534Z,20.16
2018-06-15T08:34:10.466Z,20.28
2018-06-15T08:35:10.414Z,20.41
2018-06-15T08:36:10.362Z,20.41
2018-06-15T08:37:10.313Z,20.35
2018-06-15T08:38:10.260Z,20.42
2018-06-15T08:39:10.210Z,20.34
2018-06-15T08:40:10.159Z,20.30
2018-06-15T08:41:10.112Z,20.28
2018-06-15T08:42:10.058Z,20.35
2018-06-15T08:43:10.007Z,20.25
2018-06-15T08:44:09.955Z,20.27
2018-06-15T08:45:09.905Z,20.24
2018-06-15T08:46:09.855Z,20.16
2018-06-15T08:47:09.810Z,20.18
2018-06-15T08:48:09.751Z,20.16
2018-06-15T08:49:09.703Z,20.09
2018-06-15T08:50:09.650Z,19.97
2018-06-15T08:51:09.598Z,19.97
2018-06-15T08:52:09.547Z,20.00
2018-06-15T08:53:09.496Z,20.09
2018-06-15T08:54:09.450Z,20.05
2018-06-15T08:55:09.393Z,20.00
2018-06-15T08:56:09.347Z,20.16
2018-06-15T08:57:09.296Z,20.27
2018-06-15T08:58:09.241Z,20.23
2018-06-15T08:59:09.190Z,20.12
2018-06-15T09:00:09.140Z,20.05
2018-06-15T09:01:09.088Z,20.13
2018-06-15T09:02:09.037Z,20.13
2018-06-15T09:03:08.987Z,20.20
2018-06-15T09:04:08.936Z,20.18
2018-06-15T09:05:08.885Z,20.18
2018-06-15T09:06:08.834Z,20.20
2018-06-15T09:07:08.785Z,20.24
2018-06-15T09:08:08.731Z,20.24
2018-06-15T09:09:08.681Z,20.27
2018-06-15T09:10:08.631Z,20.18
2018-06-15T09:11:08.600Z,20.09
2018-06-15T09:12:08.528Z,20.21
2018-06-15T09:13:08.477Z,20.23
2018-06-15T09:14:08.428Z,20.27
2018-06-15T09:15:08.399Z,20.33
2018-06-15T09:16:08.325Z,20.46
2018-06-15T09:17:08.277Z,20.47
2018-06-15T09:18:08.281Z,20.38
2018-06-15T09:19:08.170Z,20.31
2018-06-15T09:20:08.121Z,20.41
2018-06-15T09:21:08.072Z,20.39
2018-06-15T09:22:08.021Z,20.39
2018-06-15T09:23:07.967Z,20.49
2018-06-15T09:24:07.926Z,20.59
2018-06-15T09:25:07.866Z,20.65
2018-06-15T09:26:07.815Z,20.81
2018-06-15T09:27:07.765Z,20.86
2018-06-15T09:28:07.715Z,20.81
2018-06-15T09:29:07.668Z,20.86
2018-06-15T09:30:07.615Z,20.84
2018-06-15T09:31:07.563Z,20.91
2018-06-15T09:32:07.513Z,21.05
2018-06-15T09:33:07.463Z,21.13
2018-06-15T09:34:07.413Z,21.20
2018-06-15T09:35:07.363Z,21.27
2018-06-15T09:36:07.317Z,21.38
2018-06-15T09:37:07.263Z,21.41
2018-06-15T09:38:07.210Z,21.26
2018-06-15T09:39:07.161Z,21.16
2018-06-15T09:40:07.110Z,21.17
2018-06-15T09:41:07.060Z,21.20
2018-06-15T09:42:07.011Z,21.24
2018-06-15T09:43:06.967Z,21.30
2018-06-15T09:44:06.908Z,21.48
2018-06-15T09:45:06.858Z,21.53
2018-06-15T09:46:06.812Z,21.46
2018-06-15T09:47:06.758Z,21.44
2018-06-15T09:48:06.708Z,21.41
2018-06-15T09:49:06.659Z,21.38
2018-06-15T09:50:06.609Z,21.41
2018-06-15T09:51:06.558Z,21.16
2018-06-15T09:52:06.507Z,21.13
2018-06-15T09:53:06.460Z,21.01
2018-06-15T09:54:06.408Z,21.09
2018-06-15T09:55:06.358Z,21.09
2018-06-15T09:56:06.307Z,21.14
2018-06-15T09:57:06.257Z,21.24
2018-06-15T09:58:06.208Z,21.34
2018-06-15T09:59:06.157Z,21.44
2018-06-15T10:00:06.113Z,21.44
2018-06-15T10:01:06.058Z,21.54
2018-06-15T10:02:06.007Z,21.64
2018-06-15T10:03:05.956Z,21.59
2018-06-15T10:04:05.913Z,21.59
2018-06-15T10:05:05.856Z,21.81
2018-06-15T10:06:05.852Z,21.94
2018-06-15T10:07:05.756Z,22.07
2018-06-15T10:08:05.712Z,22.28
2018-06-15T10:09:05.659Z,22.50
2018-06-15T10:10:05.613Z,22.28
2018-06-15T10:11:05.558Z,22.06
2018-06-15T10:12:05.509Z,21.81
2018-06-15T10:13:05.459Z,21.67
2018-06-15T10:14:05.410Z,21.82
2018-06-15T10:15:05.362Z,21.91
2018-06-15T10:16:05.314Z,21.95
2018-06-15T10:17:05.262Z,21.98
2018-06-15T10:18:05.212Z,22.02
2018-06-15T10:19:05.167Z,22.22
2018-06-15T10:20:05.112Z,22.10
2018-06-15T10:21:05.069Z,21.95
2018-06-15T10:22:05.013Z,22.07
2018-06-15T10:23:04.962Z,22.16
2018-06-15T10:24:04.915Z,22.13
2018-06-15T10:25:04.867Z,21.95
2018-06-15T10:26:04.815Z,21.99
2018-06-15T10:27:04.767Z,21.94
2018-06-15T10:28:04.717Z,22.01
2018-06-15T10:29:04.668Z,22.04
2018-06-15T10:30:04.618Z,22.20
2018-06-15T10:31:04.566Z,22.39
2018-06-15T10:32:04.518Z,22.29
2018-06-15T10:33:04.508Z,22.37
2018-06-15T10:34:04.421Z,22.39
2018-06-15T10:35:04.370Z,22.34
2018-06-15T10:36:04.320Z,22.53
2018-06-15T10:37:04.274Z,22.59
2018-06-15T10:38:04.249Z,22.65
2018-06-15T10:39:04.171Z,22.68
2018-06-15T10:40:04.122Z,22.60
2018-06-15T10:41:04.075Z,22.71
2018-06-15T10:42:04.028Z,22.89
2018-06-15T10:43:03.977Z,23.02
2018-06-15T10:44:03.926Z,22.94
2018-06-15T10:45:03.878Z,22.83
2018-06-15T10:46:03.828Z,22.89
2018-06-15T10:47:03.780Z,23.01
2018-06-15T10:48:03.731Z,23.14
2018-06-15T10:49:03.681Z,23.04
2018-06-15T10:50:03.632Z,22.83
2018-06-15T10:51:03.582Z,22.93
2018-06-15T10:52:03.534Z,22.93
2018-06-15T10:53:03.485Z,22.97
2018-06-15T10:54:03.437Z,23.04
2018-06-15T10:55:03.388Z,23.12
2018-06-15T10:56:03.337Z,23.15
2018-06-15T10:57:03.290Z,23.09
2018-06-15T10:58:03.243Z,23.01
2018-06-15T10:59:03.191Z,23.05
2018-06-15T11:00:03.150Z,23.17
2018-06-15T11:01:03.095Z,22.94
2018-06-15T11:02:03.049Z,22.75
2018-06-15T11:03:02.997Z,22.68
2018-06-15T11:04:02.948Z,22.57
2018-06-15T11:05:02.900Z,22.47
2018-06-15T11:06:02.851Z,22.62
2018-06-15T11:07:02.801Z,22.64
2018-06-15T11:08:02.755Z,22.71
2018-06-15T11:09:02.756Z,22.71
2018-06-15T11:10:02.655Z,22.67
2018-06-15T11:11:02.607Z,22.69
2018-06-15T11:12:02.556Z,22.82
2018-06-15T11:13:02.508Z,22.90
2018-06-15T11:14:02.460Z,22.99
2018-06-15T11:15:02.410Z,23.04
2018-06-15T11:16:02.364Z,23.17
2018-06-15T11:17:02.319Z,23.39
2018-06-15T11:18:02.265Z,23.45
2018-06-15T11:19:02.215Z,23.52
2018-06-15T11:20:02.172Z,23.50
2018-06-15T11:21:02.118Z,23.64
2018-06-15T11:22:02.081Z,23.57
2018-06-15T11:23:02.019Z,23.61
2018-06-15T11:24:01.977Z,23.55
2018-06-15T11:25:01.924Z,23.62
2018-06-15T11:26:01.878Z,23.62
2018-06-15T11:27:01.827Z,23.58
2018-06-15T11:28:01.785Z,23.65
2018-06-15T11:29:01.739Z,23.65
2018-06-15T11:30:01.681Z,23.85
2018-06-15T11:31:01.650Z,23.97
2018-06-15T11:32:01.584Z,23.67
2018-06-15T11:33:01.535Z,23.53
2018-06-15T11:34:01.487Z,23.49
2018-06-15T11:35:01.439Z,23.61
2018-06-15T11:36:01.390Z,23.57
2018-06-15T11:37:01.341Z,23.60
2018-06-15T11:38:01.294Z,23.64
2018-06-15T11:39:01.246Z,23.53
2018-06-15T11:40:01.196Z,23.52
2018-06-15T11:41:01.237Z,23.39
2018-06-15T11:42:01.100Z,23.24
2018-06-15T11:43:01.050Z,23.55
2018-06-15T11:44:01.030Z,23.62
2018-06-15T11:45:00.958Z,23.64
2018-06-15T11:46:00.906Z,23.85
2018-06-15T11:47:00.857Z,23.97
2018-06-15T11:48:00.820Z,24.16
2018-06-15T11:49:00.761Z,24.26
2018-06-15T11:50:00.713Z,24.24
2018-06-15T11:51:00.665Z,24.20
2018-06-15T11:52:00.617Z,24.23
2018-06-15T11:53:00.568Z,24.13
2018-06-15T11:54:00.521Z,23.85
2018-06-15T11:55:00.481Z,23.83
2018-06-15T11:56:00.423Z,23.61
2018-06-15T11:57:00.375Z,23.32
2018-06-15T11:58:00.329Z,23.31
2018-06-15T11:59:00.279Z,23.42
2018-06-15T12:00:00.232Z,23.46
2018-06-15T12:01:00.183Z,23.47
2018-06-15T12:02:00.139Z,23.24
2018-06-15T12:03:00.089Z,23.05
2018-06-15T12:04:00.039Z,23.05
2018-06-15T12:04:59.999Z,23.15
2018-06-15T12:05:59.940Z,23.17
2018-06-15T12:06:59.894Z,23.39
2018-06-15T12:07:59.843Z,23.55
2018-06-15T12:08:59.795Z,23.71
2018-06-15T12:09:59.747Z,23.65
2018-06-15T12:10:59.698Z,23.72
2018-06-15T12:11:59.650Z,23.85
2018-06-15T12:12:59.600Z,23.94
2018-06-15T12:13:59.555Z,24.20
2018-06-15T12:14:59.503Z,24.44
2018-06-15T12:15:59.456Z,24.49
2018-06-15T12:16:59.407Z,24.57
2018-06-15T12:17:59.361Z,24.56
2018-06-15T12:18:59.311Z,24.73
2018-06-15T12:19:59.264Z,24.82
2018-06-15T12:20:59.219Z,24.92
2018-06-15T12:21:59.168Z,25.00
2018-06-15T12:22:59.128Z,25.10
2018-06-15T12:23:59.072Z,25.10
2018-06-15T12:24:59.027Z,25.20
2018-06-15T12:25:58.979Z,25.24
2018-06-15T12:26:58.929Z,25.35
2018-06-15T12:27:58.886Z,25.35
2018-06-15T12:28:58.837Z,25.05
2018-06-15T12:29:58.788Z,24.83
2018-06-15T12:30:58.743Z,24.49
2018-06-15T12:31:58.693Z,24.41
2018-06-15T12:32:58.646Z,24.05
2018-06-15T12:33:58.602Z,24.00
2018-06-15T12:34:58.553Z,23.97
2018-06-15T12:35:58.506Z,24.13
2018-06-15T12:36:58.461Z,24.34
2018-06-15T12:37:58.409Z,24.38
2018-06-15T12:38:58.361Z,24.69
2018-06-15T12:39:58.317Z,24.68
2018-06-15T12:40:58.268Z,24.54
2018-06-15T12:41:58.219Z,24.63
2018-06-15T12:42:58.179Z,24.60
2018-06-15T12:43:58.123Z,24.73
2018-06-15T12:44:58.085Z,24.87
2018-06-15T12:45:58.077Z,24.97
2018-06-15T12:46:57.987Z,25.06
2018-06-15T12:47:57.934Z,25.20
2018-06-15T12:48:57.889Z,25.28
2018-06-15T12:49:57.845Z,25.31
2018-06-15T12:50:57.795Z,25.31
2018-06-15T12:51:57.744Z,25.19